Donalda, Canada
Current Conditions -  °F | °C
As of 6:00 PM on Monday 26 Jan 2015 (Local Time) from CYQF Reporting Station
Broken Clouds Broken Clouds  
Wind Chill: 36°   Ceiling: 18000
Heat Index: 36°   Visibility: 15mi
Dew Point: 30°   Wind: 2mph
Humidity: 81%   Direction: 10°N
Pressure: 29.75"   Gusts: NA
Location:  52.58°N, 112.57°W
Report Text: CYQF 270100Z 01002KT 15SM BKN180 02/M01 A2975 RMK AC7 SLP113
Loading
Personal Weather Stations






























Interactive Weather Map New forecast layout! Learn more

10-Day Weather Forecast

Advertisements
Track Severe Weather on mobile